Airport ICAO


23:12 UTC

9°C

Clear skies


An affordable passengers' Moving Map for your aircraft. Made for the iPad and the iPhone
More information here

EGKB Biggin Hill


London UNITED KINGDOM   VFR CAVOK


METAR EGKB 132250Z 18008KT CAVOK 09/08 Q1025 0h22min

TAF EGKB 131703Z 1318/1322 18010KT 9999 FEW020 6h09min





NOTAMS

OPEN